Search for airport 
image banner adimage banner adimage banner ad
image banner ad

47PN - Bristol Usar Center

Located in Bristol, United States

ICAO - 47PN, IATA -

Data provided by Airmate  

General information

Coordinates: N40°7'20" W74°53'49"
Elevation is 45 feet MSL.
Magnetic variation is -12° East
View others Airports in Pennsylvania

Operational data

Special qualification required
Current time UTC:
Current local time:
Weather at : KPNE - Northeast Philadelphia ( 11 km )
METAR: KPNE 182254Z 26010KT 10SM CLR 26/07 A3025 RMK AO2 SLP244 T02560067
TAF: KPNE 181732Z 1818/1918 25010KT P6SM SKC FM190000 VRB04KT P6SM SKC
View NOTAMs / SUP AIP / TFR affecting this airport [VIEW]
Communications frequencies: [VIEW]

Runways:

Airport contact information

Address: Bristol United States

Satellite view of 47PN